sensor_id;sensor_type;location;lat;lon;timestamp;P1;durP1;ratioP1;P2;durP2;ratioP2
64335;SDS011;50672;53.362;-6.240;2022-10-16T00:01:09;4.27;;;1.00;;
64335;SDS011;50672;53.362;-6.240;2022-10-16T00:03:38;1.40;;;0.75;;
64335;SDS011;50672;53.362;-6.240;2022-10-16T00:06:06;2.80;;;0.67;;
64335;SDS011;50672;53.362;-6.240;2022-10-16T00:08:33;2.33;;;1.50;;
64335;SDS011;50672;53.362;-6.240;2022-10-16T00:11:08;2.53;;;0.77;;
64335;SDS011;50672;53.362;-6.240;2022-10-16T00:13:35;2.50;;;1.20;;
64335;SDS011;50672;53.362;-6.240;2022-10-16T00:16:04;2.87;;;0.90;;
64335;SDS011;50672;53.362;-6.240;2022-10-16T00:18:32;1.93;;;0.90;;
64335;SDS011;50672;53.362;-6.240;2022-10-16T00:21:10;5.07;;;0.53;;
64335;SDS011;50672;53.362;-6.240;2022-10-16T00:23:39;1.00;;;0.60;;
64335;SDS011;50672;53.362;-6.240;2022-10-16T00:26:08;1.57;;;0.70;;
64335;SDS011;50672;53.362;-6.240;2022-10-16T00:28:36;2.50;;;0.50;;
64335;SDS011;50672;53.362;-6.240;2022-10-16T00:31:08;1.00;;;0.57;;
64335;SDS011;50672;53.362;-6.240;2022-10-16T00:36:05;9.00;;;1.30;;
64335;SDS011;50672;53.362;-6.240;2022-10-16T00:38:33;3.10;;;0.73;;
64335;SDS011;50672;53.362;-6.240;2022-10-16T00:41:00;1.90;;;0.77;;
64335;SDS011;50672;53.362;-6.240;2022-10-16T00:48:43;1.10;;;0.53;;
64335;SDS011;50672;53.362;-6.240;2022-10-16T00:53:41;5.07;;;1.97;;
64335;SDS011;50672;53.362;-6.240;2022-10-16T00:56:08;2.67;;;1.17;;
64335;SDS011;50672;53.362;-6.240;2022-10-16T00:58:35;3.07;;;1.13;;
64335;SDS011;50672;53.362;-6.240;2022-10-16T01:01:02;4.70;;;0.90;;
64335;SDS011;50672;53.362;-6.240;2022-10-16T01:03:33;1.00;;;0.50;;
64335;SDS011;50672;53.362;-6.240;2022-10-16T01:06:10;4.03;;;0.70;;
64335;SDS011;50672;53.362;-6.240;2022-10-16T01:08:52;4.73;;;0.70;;
64335;SDS011;50672;53.362;-6.240;2022-10-16T01:15:16;3.40;;;1.10;;
64335;SDS011;50672;53.362;-6.240;2022-10-16T01:18:21;2.83;;;0.97;;
64335;SDS011;50672;53.362;-6.240;2022-10-16T01:21:50;1.97;;;0.87;;
64335;SDS011;50672;53.362;-6.240;2022-10-16T01:29:03;1.53;;;0.60;;
64335;SDS011;50672;53.362;-6.240;2022-10-16T01:32:40;0.87;;;0.40;;
64335;SDS011;50672;53.362;-6.240;2022-10-16T01:36:11;1.63;;;0.70;;
64335;SDS011;50672;53.362;-6.240;2022-10-16T01:38:43;4.57;;;1.40;;
64335;SDS011;50672;53.362;-6.240;2022-10-16T01:41:18;2.90;;;1.17;;
64335;SDS011;50672;53.362;-6.240;2022-10-16T01:45:00;3.30;;;0.90;;
64335;SDS011;50672;53.362;-6.240;2022-10-16T01:48:26;3.43;;;0.73;;
64335;SDS011;50672;53.362;-6.240;2022-10-16T01:51:54;2.27;;;0.70;;
64335;SDS011;50672;53.362;-6.240;2022-10-16T01:55:45;1.67;;;0.60;;
64335;SDS011;50672;53.362;-6.240;2022-10-16T01:59:12;1.90;;;0.60;;
64335;SDS011;50672;53.362;-6.240;2022-10-16T02:02:38;1.57;;;0.47;;
64335;SDS011;50672;53.362;-6.240;2022-10-16T02:06:04;3.90;;;1.40;;
64335;SDS011;50672;53.362;-6.240;2022-10-16T02:09:32;3.13;;;0.60;;
64335;SDS011;50672;53.362;-6.240;2022-10-16T02:13:17;1.77;;;0.47;;
64335;SDS011;50672;53.362;-6.240;2022-10-16T02:16:19;1.20;;;0.43;;
64335;SDS011;50672;53.362;-6.240;2022-10-16T02:19:46;2.27;;;0.50;;
64335;SDS011;50672;53.362;-6.240;2022-10-16T02:23:51;0.70;;;0.40;;
64335;SDS011;50672;53.362;-6.240;2022-10-16T02:27:10;2.83;;;0.67;;
64335;SDS011;50672;53.362;-6.240;2022-10-16T02:30:30;0.80;;;0.50;;
64335;SDS011;50672;53.362;-6.240;2022-10-16T02:33:06;3.17;;;1.13;;
64335;SDS011;50672;53.362;-6.240;2022-10-16T02:36:59;2.70;;;0.50;;
64335;SDS011;50672;53.362;-6.240;2022-10-16T02:40:26;3.07;;;0.57;;
64335;SDS011;50672;53.362;-6.240;2022-10-16T02:44:10;5.60;;;0.88;;
64335;SDS011;50672;53.362;-6.240;2022-10-16T02:47:37;0.87;;;0.53;;
64335;SDS011;50672;53.362;-6.240;2022-10-16T02:51:03;4.53;;;0.60;;
64335;SDS011;50672;53.362;-6.240;2022-10-16T02:54:30;2.33;;;0.60;;
64335;SDS011;50672;53.362;-6.240;2022-10-16T02:57:56;3.07;;;0.50;;
64335;SDS011;50672;53.362;-6.240;2022-10-16T03:01:47;0.53;;;0.50;;
64335;SDS011;50672;53.362;-6.240;2022-10-16T03:05:14;2.73;;;1.10;;
64335;SDS011;50672;53.362;-6.240;2022-10-16T03:08:58;4.18;;;0.60;;
64335;SDS011;50672;53.362;-6.240;2022-10-16T03:12:24;2.20;;;0.53;;
64335;SDS011;50672;53.362;-6.240;2022-10-16T03:15:51;3.90;;;0.80;;
64335;SDS011;50672;53.362;-6.240;2022-10-16T03:19:42;2.20;;;0.60;;
64335;SDS011;50672;53.362;-6.240;2022-10-16T03:23:09;2.90;;;1.67;;
64335;SDS011;50672;53.362;-6.240;2022-10-16T03:26:36;2.53;;;0.50;;
64335;SDS011;50672;53.362;-6.240;2022-10-16T03:30:28;0.33;;;0.27;;
64335;SDS011;50672;53.362;-6.240;2022-10-16T03:33:55;2.30;;;0.77;;
64335;SDS011;50672;53.362;-6.240;2022-10-16T03:37:21;1.20;;;0.50;;
64335;SDS011;50672;53.362;-6.240;2022-10-16T03:40:48;2.03;;;0.60;;
64335;SDS011;50672;53.362;-6.240;2022-10-16T03:44:17;1.83;;;0.60;;
64335;SDS011;50672;53.362;-6.240;2022-10-16T03:47:43;1.13;;;0.50;;
64335;SDS011;50672;53.362;-6.240;2022-10-16T03:50:10;1.83;;;0.40;;
64335;SDS011;50672;53.362;-6.240;2022-10-16T03:52:37;2.30;;;0.73;;
64335;SDS011;50672;53.362;-6.240;2022-10-16T03:55:04;2.17;;;0.77;;
64335;SDS011;50672;53.362;-6.240;2022-10-16T03:57:31;1.93;;;0.47;;
64335;SDS011;50672;53.362;-6.240;2022-10-16T03:59:57;5.27;;;1.40;;
64335;SDS011;50672;53.362;-6.240;2022-10-16T04:02:24;3.07;;;0.90;;
64335;SDS011;50672;53.362;-6.240;2022-10-16T04:04:51;3.63;;;0.80;;
64335;SDS011;50672;53.362;-6.240;2022-10-16T04:08:18;3.27;;;1.40;;
64335;SDS011;50672;53.362;-6.240;2022-10-16T04:10:45;1.83;;;1.20;;
64335;SDS011;50672;53.362;-6.240;2022-10-16T04:14:39;2.13;;;1.10;;
64335;SDS011;50672;53.362;-6.240;2022-10-16T04:18:06;1.30;;;0.70;;
64335;SDS011;50672;53.362;-6.240;2022-10-16T04:21:32;2.80;;;0.60;;
64335;SDS011;50672;53.362;-6.240;2022-10-16T04:23:59;3.50;;;0.67;;
64335;SDS011;50672;53.362;-6.240;2022-10-16T04:27:25;1.30;;;0.70;;
64335;SDS011;50672;53.362;-6.240;2022-10-16T04:30:52;3.03;;;1.50;;
64335;SDS011;50672;53.362;-6.240;2022-10-16T04:34:34;0.77;;;0.57;;
64335;SDS011;50672;53.362;-6.240;2022-10-16T04:37:09;3.60;;;1.23;;
64335;SDS011;50672;53.362;-6.240;2022-10-16T04:40:33;2.07;;;0.40;;
64335;SDS011;50672;53.362;-6.240;2022-10-16T04:43:03;0.50;;;0.40;;
64335;SDS011;50672;53.362;-6.240;2022-10-16T04:46:29;2.80;;;0.70;;
64335;SDS011;50672;53.362;-6.240;2022-10-16T04:49:58;2.63;;;0.50;;
64335;SDS011;50672;53.362;-6.240;2022-10-16T04:53:25;0.73;;;0.40;;
64335;SDS011;50672;53.362;-6.240;2022-10-16T04:57:16;2.63;;;0.90;;
64335;SDS011;50672;53.362;-6.240;2022-10-16T05:00:43;1.57;;;0.50;;
64335;SDS011;50672;53.362;-6.240;2022-10-16T05:04:09;3.47;;;0.57;;
64335;SDS011;50672;53.362;-6.240;2022-10-16T05:08:00;1.07;;;0.70;;
64335;SDS011;50672;53.362;-6.240;2022-10-16T05:10:27;0.97;;;0.40;;
64335;SDS011;50672;53.362;-6.240;2022-10-16T05:12:54;1.50;;;0.60;;
64335;SDS011;50672;53.362;-6.240;2022-10-16T05:15:21;1.70;;;0.77;;
64335;SDS011;50672;53.362;-6.240;2022-10-16T05:18:47;2.00;;;0.47;;
64335;SDS011;50672;53.362;-6.240;2022-10-16T05:22:10;2.85;;;0.43;;
64335;SDS011;50672;53.362;-6.240;2022-10-16T05:24:38;2.10;;;0.30;;
64335;SDS011;50672;53.362;-6.240;2022-10-16T05:27:04;1.93;;;0.53;;
64335;SDS011;50672;53.362;-6.240;2022-10-16T05:29:31;2.03;;;0.53;;
64335;SDS011;50672;53.362;-6.240;2022-10-16T05:31:58;3.20;;;0.50;;
64335;SDS011;50672;53.362;-6.240;2022-10-16T05:35:41;6.03;;;0.60;;
64335;SDS011;50672;53.362;-6.240;2022-10-16T05:38:08;1.37;;;0.50;;
64335;SDS011;50672;53.362;-6.240;2022-10-16T05:40:35;1.60;;;0.60;;
64335;SDS011;50672;53.362;-6.240;2022-10-16T05:43:10;1.50;;;0.60;;
64335;SDS011;50672;53.362;-6.240;2022-10-16T05:46:13;3.05;;;1.15;;
64335;SDS011;50672;53.362;-6.240;2022-10-16T05:48:40;3.93;;;0.40;;
64335;SDS011;50672;53.362;-6.240;2022-10-16T05:52:24;1.50;;;0.50;;
64335;SDS011;50672;53.362;-6.240;2022-10-16T05:55:27;1.77;;;0.65;;
64335;SDS011;50672;53.362;-6.240;2022-10-16T05:58:54;2.93;;;0.93;;
64335;SDS011;50672;53.362;-6.240;2022-10-16T06:02:21;6.20;;;1.20;;
64335;SDS011;50672;53.362;-6.240;2022-10-16T06:05:47;4.43;;;1.30;;
64335;SDS011;50672;53.362;-6.240;2022-10-16T06:09:39;3.20;;;1.03;;
64335;SDS011;50672;53.362;-6.240;2022-10-16T06:13:06;3.47;;;0.83;;
64335;SDS011;50672;53.362;-6.240;2022-10-16T06:15:33;2.10;;;0.70;;
64335;SDS011;50672;53.362;-6.240;2022-10-16T06:18:59;5.80;;;0.90;;
64335;SDS011;50672;53.362;-6.240;2022-10-16T06:22:26;2.20;;;0.60;;
64335;SDS011;50672;53.362;-6.240;2022-10-16T06:25:53;5.60;;;0.83;;
64335;SDS011;50672;53.362;-6.240;2022-10-16T06:29:36;3.13;;;1.40;;
64335;SDS011;50672;53.362;-6.240;2022-10-16T06:33:02;4.30;;;1.07;;
64335;SDS011;50672;53.362;-6.240;2022-10-16T06:36:29;3.07;;;0.77;;
64335;SDS011;50672;53.362;-6.240;2022-10-16T06:39:55;4.67;;;1.00;;
64335;SDS011;50672;53.362;-6.240;2022-10-16T06:43:22;2.03;;;0.63;;
64335;SDS011;50672;53.362;-6.240;2022-10-16T06:47:16;4.82;;;1.23;;
64335;SDS011;50672;53.362;-6.240;2022-10-16T06:49:43;15.97;;;1.63;;
64335;SDS011;50672;53.362;-6.240;2022-10-16T06:52:13;3.20;;;0.70;;
64335;SDS011;50672;53.362;-6.240;2022-10-16T06:54:40;3.87;;;1.00;;
64335;SDS011;50672;53.362;-6.240;2022-10-16T06:57:07;3.03;;;1.30;;
64335;SDS011;50672;53.362;-6.240;2022-10-16T06:59:34;3.23;;;0.97;;
64335;SDS011;50672;53.362;-6.240;2022-10-16T07:02:01;8.17;;;1.43;;
64335;SDS011;50672;53.362;-6.240;2022-10-16T07:04:28;7.20;;;0.93;;
64335;SDS011;50672;53.362;-6.240;2022-10-16T07:06:54;3.60;;;0.63;;
64335;SDS011;50672;53.362;-6.240;2022-10-16T07:09:21;3.47;;;0.73;;
64335;SDS011;50672;53.362;-6.240;2022-10-16T07:11:48;8.63;;;0.90;;
64335;SDS011;50672;53.362;-6.240;2022-10-16T07:14:55;4.47;;;0.67;;
64335;SDS011;50672;53.362;-6.240;2022-10-16T07:17:22;2.20;;;0.57;;
64335;SDS011;50672;53.362;-6.240;2022-10-16T07:20:49;2.13;;;1.20;;
64335;SDS011;50672;53.362;-6.240;2022-10-16T07:24:13;3.15;;;1.10;;
64335;SDS011;50672;53.362;-6.240;2022-10-16T07:26:42;4.87;;;0.70;;
64335;SDS011;50672;53.362;-6.240;2022-10-16T07:29:14;4.80;;;0.80;;
64335;SDS011;50672;53.362;-6.240;2022-10-16T07:31:44;4.37;;;1.13;;
64335;SDS011;50672;53.362;-6.240;2022-10-16T07:34:11;3.83;;;1.07;;
64335;SDS011;50672;53.362;-6.240;2022-10-16T07:36:40;6.10;;;1.13;;
64335;SDS011;50672;53.362;-6.240;2022-10-16T07:39:08;2.87;;;1.57;;
64335;SDS011;50672;53.362;-6.240;2022-10-16T07:41:34;5.20;;;0.90;;
64335;SDS011;50672;53.362;-6.240;2022-10-16T07:44:03;5.07;;;1.00;;
64335;SDS011;50672;53.362;-6.240;2022-10-16T07:46:30;8.57;;;1.00;;
64335;SDS011;50672;53.362;-6.240;2022-10-16T07:48:57;4.03;;;1.20;;
64335;SDS011;50672;53.362;-6.240;2022-10-16T07:51:24;3.70;;;0.70;;
64335;SDS011;50672;53.362;-6.240;2022-10-16T07:53:52;4.37;;;0.90;;
64335;SDS011;50672;53.362;-6.240;2022-10-16T07:56:20;2.93;;;1.00;;
64335;SDS011;50672;53.362;-6.240;2022-10-16T07:58:47;4.20;;;1.20;;
64335;SDS011;50672;53.362;-6.240;2022-10-16T08:02:14;2.00;;;0.70;;
64335;SDS011;50672;53.362;-6.240;2022-10-16T08:05:40;5.70;;;1.13;;
64335;SDS011;50672;53.362;-6.240;2022-10-16T08:08:52;3.50;;;0.87;;
64335;SDS011;50672;53.362;-6.240;2022-10-16T08:11:19;2.27;;;1.00;;
64335;SDS011;50672;53.362;-6.240;2022-10-16T08:13:49;3.13;;;1.10;;
64335;SDS011;50672;53.362;-6.240;2022-10-16T08:16:44;3.43;;;1.63;;
64335;SDS011;50672;53.362;-6.240;2022-10-16T08:19:11;4.93;;;1.47;;
64335;SDS011;50672;53.362;-6.240;2022-10-16T08:21:38;3.70;;;1.43;;
64335;SDS011;50672;53.362;-6.240;2022-10-16T08:25:05;3.40;;;1.17;;
64335;SDS011;50672;53.362;-6.240;2022-10-16T08:28:31;4.77;;;1.27;;
64335;SDS011;50672;53.362;-6.240;2022-10-16T08:33:56;8.73;;;3.83;;
64335;SDS011;50672;53.362;-6.240;2022-10-16T08:36:23;7.07;;;1.70;;
64335;SDS011;50672;53.362;-6.240;2022-10-16T08:38:50;4.53;;;0.90;;
64335;SDS011;50672;53.362;-6.240;2022-10-16T08:51:00;9.20;;;2.57;;
64335;SDS011;50672;53.362;-6.240;2022-10-16T08:54:34;4.97;;;1.73;;
64335;SDS011;50672;53.362;-6.240;2022-10-16T08:57:59;5.37;;;1.30;;
64335;SDS011;50672;53.362;-6.240;2022-10-16T09:01:34;4.53;;;1.07;;
64335;SDS011;50672;53.362;-6.240;2022-10-16T09:05:03;5.07;;;1.37;;
64335;SDS011;50672;53.362;-6.240;2022-10-16T09:20:39;3.00;;;0.83;;
64335;SDS011;50672;53.362;-6.240;2022-10-16T09:23:17;7.40;;;1.70;;
64335;SDS011;50672;53.362;-6.240;2022-10-16T09:26:43;2.07;;;1.00;;
64335;SDS011;50672;53.362;-6.240;2022-10-16T09:30:28;4.18;;;1.10;;
64335;SDS011;50672;53.362;-6.240;2022-10-16T09:33:55;3.83;;;1.00;;
64335;SDS011;50672;53.362;-6.240;2022-10-16T09:36:36;3.73;;;0.90;;
64335;SDS011;50672;53.362;-6.240;2022-10-16T09:39:19;4.07;;;1.23;;
64335;SDS011;50672;53.362;-6.240;2022-10-16T09:41:46;3.67;;;1.00;;
64335;SDS011;50672;53.362;-6.240;2022-10-16T09:45:40;2.10;;;0.90;;
64335;SDS011;50672;53.362;-6.240;2022-10-16T09:48:11;4.97;;;0.87;;
64335;SDS011;50672;53.362;-6.240;2022-10-16T09:50:39;4.75;;;1.65;;
64335;SDS011;50672;53.362;-6.240;2022-10-16T09:57:03;4.63;;;1.20;;
64335;SDS011;50672;53.362;-6.240;2022-10-16T10:00:22;3.43;;;1.63;;
64335;SDS011;50672;53.362;-6.240;2022-10-16T10:04:13;5.77;;;1.30;;
64335;SDS011;50672;53.362;-6.240;2022-10-16T10:07:45;3.40;;;1.00;;
64335;SDS011;50672;53.362;-6.240;2022-10-16T10:11:11;6.63;;;1.77;;
64335;SDS011;50672;53.362;-6.240;2022-10-16T10:13:41;8.20;;;2.57;;
64335;SDS011;50672;53.362;-6.240;2022-10-16T10:17:20;6.13;;;1.70;;
64335;SDS011;50672;53.362;-6.240;2022-10-16T10:19:50;7.93;;;3.23;;
64335;SDS011;50672;53.362;-6.240;2022-10-16T10:23:26;4.67;;;1.40;;
64335;SDS011;50672;53.362;-6.240;2022-10-16T10:27:17;4.47;;;0.97;;
64335;SDS011;50672;53.362;-6.240;2022-10-16T10:29:48;2.47;;;0.80;;
64335;SDS011;50672;53.362;-6.240;2022-10-16T10:35:22;3.20;;;0.80;;
64335;SDS011;50672;53.362;-6.240;2022-10-16T10:37:57;5.90;;;1.60;;
64335;SDS011;50672;53.362;-6.240;2022-10-16T10:40:47;6.17;;;1.63;;
64335;SDS011;50672;53.362;-6.240;2022-10-16T10:46:07;4.90;;;1.00;;
64335;SDS011;50672;53.362;-6.240;2022-10-16T10:49:51;5.00;;;0.80;;
64335;SDS011;50672;53.362;-6.240;2022-10-16T10:56:16;9.43;;;1.83;;
64335;SDS011;50672;53.362;-6.240;2022-10-16T10:59:35;4.73;;;1.00;;
64335;SDS011;50672;53.362;-6.240;2022-10-16T11:05:18;5.00;;;1.20;;
64335;SDS011;50672;53.362;-6.240;2022-10-16T11:08:34;5.27;;;0.93;;
64335;SDS011;50672;53.362;-6.240;2022-10-16T11:12:11;2.92;;;0.80;;
64335;SDS011;50672;53.362;-6.240;2022-10-16T11:16:13;5.72;;;1.77;;
64335;SDS011;50672;53.362;-6.240;2022-10-16T11:19:45;2.90;;;0.87;;
64335;SDS011;50672;53.362;-6.240;2022-10-16T11:26:39;3.87;;;0.63;;
64335;SDS011;50672;53.362;-6.240;2022-10-16T11:30:23;5.57;;;1.10;;
64335;SDS011;50672;53.362;-6.240;2022-10-16T11:35:53;3.50;;;0.70;;
64335;SDS011;50672;53.362;-6.240;2022-10-16T11:38:51;6.80;;;1.77;;
64335;SDS011;50672;53.362;-6.240;2022-10-16T11:50:28;3.17;;;1.17;;
64335;SDS011;50672;53.362;-6.240;2022-10-16T11:56:50;2.77;;;0.77;;
64335;SDS011;50672;53.362;-6.240;2022-10-16T12:03:03;6.30;;;1.37;;
64335;SDS011;50672;53.362;-6.240;2022-10-16T12:08:47;1.83;;;0.73;;
64335;SDS011;50672;53.362;-6.240;2022-10-16T12:12:24;2.03;;;0.80;;
64335;SDS011;50672;53.362;-6.240;2022-10-16T12:15:39;8.27;;;2.10;;
64335;SDS011;50672;53.362;-6.240;2022-10-16T12:19:19;3.73;;;0.70;;
64335;SDS011;50672;53.362;-6.240;2022-10-16T12:22:24;3.33;;;1.30;;
64335;SDS011;50672;53.362;-6.240;2022-10-16T12:24:55;7.10;;;0.90;;
64335;SDS011;50672;53.362;-6.240;2022-10-16T12:27:30;3.83;;;0.70;;
64335;SDS011;50672;53.362;-6.240;2022-10-16T12:30:03;5.80;;;1.30;;
64335;SDS011;50672;53.362;-6.240;2022-10-16T12:33:31;2.93;;;1.20;;
64335;SDS011;50672;53.362;-6.240;2022-10-16T12:37:07;5.60;;;1.40;;
64335;SDS011;50672;53.362;-6.240;2022-10-16T12:40:44;2.40;;;0.80;;
64335;SDS011;50672;53.362;-6.240;2022-10-16T12:44:21;4.67;;;0.90;;
64335;SDS011;50672;53.362;-6.240;2022-10-16T12:47:47;2.60;;;0.80;;
64335;SDS011;50672;53.362;-6.240;2022-10-16T12:54:36;3.13;;;1.10;;
64335;SDS011;50672;53.362;-6.240;2022-10-16T13:01:07;3.23;;;1.20;;
64335;SDS011;50672;53.362;-6.240;2022-10-16T13:04:03;5.23;;;1.00;;
64335;SDS011;50672;53.362;-6.240;2022-10-16T13:28:39;2.95;;;1.13;;
64335;SDS011;50672;53.362;-6.240;2022-10-16T13:32:22;9.23;;;4.07;;
64335;SDS011;50672;53.362;-6.240;2022-10-16T13:34:49;5.83;;;1.90;;
64335;SDS011;50672;53.362;-6.240;2022-10-16T13:37:17;3.20;;;1.73;;
64335;SDS011;50672;53.362;-6.240;2022-10-16T13:39:45;6.00;;;1.17;;
64335;SDS011;50672;53.362;-6.240;2022-10-16T13:42:46;4.17;;;0.90;;
64335;SDS011;50672;53.362;-6.240;2022-10-16T13:45:17;6.30;;;2.13;;
64335;SDS011;50672;53.362;-6.240;2022-10-16T13:47:45;6.63;;;2.03;;
64335;SDS011;50672;53.362;-6.240;2022-10-16T13:50:13;13.00;;;5.40;;
64335;SDS011;50672;53.362;-6.240;2022-10-16T13:53:38;5.03;;;1.60;;
64335;SDS011;50672;53.362;-6.240;2022-10-16T13:57:23;5.63;;;2.03;;
64335;SDS011;50672;53.362;-6.240;2022-10-16T13:59:53;6.07;;;2.37;;
64335;SDS011;50672;53.362;-6.240;2022-10-16T14:04:52;6.57;;;2.78;;
64335;SDS011;50672;53.362;-6.240;2022-10-16T14:07:27;4.90;;;1.20;;
64335;SDS011;50672;53.362;-6.240;2022-10-16T14:10:00;6.67;;;3.20;;
64335;SDS011;50672;53.362;-6.240;2022-10-16T14:12:29;5.82;;;0.88;;
64335;SDS011;50672;53.362;-6.240;2022-10-16T14:16:02;3.77;;;1.60;;
64335;SDS011;50672;53.362;-6.240;2022-10-16T14:19:13;4.60;;;0.83;;
64335;SDS011;50672;53.362;-6.240;2022-10-16T14:22:35;1.80;;;0.70;;
64335;SDS011;50672;53.362;-6.240;2022-10-16T14:27:58;4.67;;;0.70;;
64335;SDS011;50672;53.362;-6.240;2022-10-16T14:30:36;4.50;;;1.00;;
64335;SDS011;50672;53.362;-6.240;2022-10-16T14:33:20;7.77;;;1.73;;
64335;SDS011;50672;53.362;-6.240;2022-10-16T14:37:00;17.03;;;1.63;;
64335;SDS011;50672;53.362;-6.240;2022-10-16T14:39:38;1.73;;;0.50;;
64335;SDS011;50672;53.362;-6.240;2022-10-16T14:42:44;6.77;;;0.90;;
64335;SDS011;50672;53.362;-6.240;2022-10-16T14:45:12;4.33;;;0.93;;
64335;SDS011;50672;53.362;-6.240;2022-10-16T14:50:16;14.67;;;2.60;;
64335;SDS011;50672;53.362;-6.240;2022-10-16T14:53:43;16.43;;;3.97;;
64335;SDS011;50672;53.362;-6.240;2022-10-16T14:57:35;6.57;;;1.43;;
64335;SDS011;50672;53.362;-6.240;2022-10-16T15:01:02;2.43;;;0.70;;
64335;SDS011;50672;53.362;-6.240;2022-10-16T15:03:29;3.57;;;1.00;;
64335;SDS011;50672;53.362;-6.240;2022-10-16T15:05:56;5.60;;;1.20;;
64335;SDS011;50672;53.362;-6.240;2022-10-16T15:08:23;7.73;;;1.47;;
64335;SDS011;50672;53.362;-6.240;2022-10-16T15:10:49;8.70;;;0.97;;
64335;SDS011;50672;53.362;-6.240;2022-10-16T15:13:17;7.43;;;1.93;;
64335;SDS011;50672;53.362;-6.240;2022-10-16T15:15:45;5.90;;;1.23;;
64335;SDS011;50672;53.362;-6.240;2022-10-16T15:18:17;5.20;;;1.00;;
64335;SDS011;50672;53.362;-6.240;2022-10-16T15:20:49;7.13;;;1.20;;
64335;SDS011;50672;53.362;-6.240;2022-10-16T15:23:17;4.57;;;1.10;;
64335;SDS011;50672;53.362;-6.240;2022-10-16T15:25:47;4.03;;;0.97;;
64335;SDS011;50672;53.362;-6.240;2022-10-16T15:28:16;5.30;;;1.60;;
64335;SDS011;50672;53.362;-6.240;2022-10-16T15:31:42;4.70;;;1.03;;
64335;SDS011;50672;53.362;-6.240;2022-10-16T15:35:35;8.97;;;0.80;;
64335;SDS011;50672;53.362;-6.240;2022-10-16T15:38:41;4.53;;;1.43;;
64335;SDS011;50672;53.362;-6.240;2022-10-16T15:42:08;6.93;;;0.87;;
64335;SDS011;50672;53.362;-6.240;2022-10-16T15:45:34;4.50;;;1.03;;
64335;SDS011;50672;53.362;-6.240;2022-10-16T15:48:01;5.30;;;1.70;;
64335;SDS011;50672;53.362;-6.240;2022-10-16T15:51:28;14.97;;;6.13;;
64335;SDS011;50672;53.362;-6.240;2022-10-16T15:53:59;7.27;;;1.53;;
64335;SDS011;50672;53.362;-6.240;2022-10-16T15:56:28;16.53;;;5.93;;
64335;SDS011;50672;53.362;-6.240;2022-10-16T15:58:59;12.80;;;5.00;;
64335;SDS011;50672;53.362;-6.240;2022-10-16T16:01:28;5.43;;;2.00;;
64335;SDS011;50672;53.362;-6.240;2022-10-16T16:03:58;8.50;;;1.53;;
64335;SDS011;50672;53.362;-6.240;2022-10-16T16:07:25;7.10;;;1.73;;
64335;SDS011;50672;53.362;-6.240;2022-10-16T16:11:10;8.35;;;1.50;;
64335;SDS011;50672;53.362;-6.240;2022-10-16T16:14:35;6.50;;;1.30;;
64335;SDS011;50672;53.362;-6.240;2022-10-16T16:18:02;9.40;;;2.60;;
64335;SDS011;50672;53.362;-6.240;2022-10-16T16:21:33;12.77;;;3.77;;
64335;SDS011;50672;53.362;-6.240;2022-10-16T16:24:59;24.50;;;10.87;;
64335;SDS011;50672;53.362;-6.240;2022-10-16T16:28:26;22.13;;;4.47;;
64335;SDS011;50672;53.362;-6.240;2022-10-16T16:30:52;21.73;;;6.90;;
64335;SDS011;50672;53.362;-6.240;2022-10-16T16:33:19;17.20;;;4.83;;
64335;SDS011;50672;53.362;-6.240;2022-10-16T16:35:46;18.63;;;4.43;;
64335;SDS011;50672;53.362;-6.240;2022-10-16T16:38:13;17.00;;;4.80;;
64335;SDS011;50672;53.362;-6.240;2022-10-16T16:42:05;9.30;;;1.77;;
64335;SDS011;50672;53.362;-6.240;2022-10-16T16:45:35;7.43;;;2.07;;
64335;SDS011;50672;53.362;-6.240;2022-10-16T16:49:02;8.97;;;1.43;;
64335;SDS011;50672;53.362;-6.240;2022-10-16T16:52:54;11.77;;;3.13;;
64335;SDS011;50672;53.362;-6.240;2022-10-16T16:56:21;22.73;;;6.13;;
64335;SDS011;50672;53.362;-6.240;2022-10-16T16:58:49;13.93;;;2.10;;
64335;SDS011;50672;53.362;-6.240;2022-10-16T17:02:15;20.63;;;5.20;;
64335;SDS011;50672;53.362;-6.240;2022-10-16T17:04:42;18.60;;;5.47;;
64335;SDS011;50672;53.362;-6.240;2022-10-16T17:08:24;7.67;;;2.80;;
64335;SDS011;50672;53.362;-6.240;2022-10-16T17:10:51;9.90;;;3.73;;
64335;SDS011;50672;53.362;-6.240;2022-10-16T17:13:26;14.27;;;4.50;;
64335;SDS011;50672;53.362;-6.240;2022-10-16T17:15:55;12.53;;;2.30;;
64335;SDS011;50672;53.362;-6.240;2022-10-16T17:19:21;24.37;;;5.70;;
64335;SDS011;50672;53.362;-6.240;2022-10-16T17:21:49;17.10;;;4.20;;
64335;SDS011;50672;53.362;-6.240;2022-10-16T17:24:51;17.70;;;4.90;;
64335;SDS011;50672;53.362;-6.240;2022-10-16T17:27:20;12.27;;;3.43;;
64335;SDS011;50672;53.362;-6.240;2022-10-16T17:29:51;15.47;;;4.53;;
64335;SDS011;50672;53.362;-6.240;2022-10-16T17:32:17;14.63;;;3.53;;
64335;SDS011;50672;53.362;-6.240;2022-10-16T17:35:45;18.70;;;6.67;;
64335;SDS011;50672;53.362;-6.240;2022-10-16T17:39:11;9.10;;;2.17;;
64335;SDS011;50672;53.362;-6.240;2022-10-16T17:42:42;8.67;;;2.30;;
64335;SDS011;50672;53.362;-6.240;2022-10-16T17:46:09;8.23;;;1.97;;
64335;SDS011;50672;53.362;-6.240;2022-10-16T17:49:35;18.47;;;7.20;;
64335;SDS011;50672;53.362;-6.240;2022-10-16T17:53:01;13.87;;;3.20;;
64335;SDS011;50672;53.362;-6.240;2022-10-16T17:55:28;15.53;;;4.77;;
64335;SDS011;50672;53.362;-6.240;2022-10-16T17:57:55;15.27;;;3.73;;
64335;SDS011;50672;53.362;-6.240;2022-10-16T18:00:22;15.13;;;3.67;;
64335;SDS011;50672;53.362;-6.240;2022-10-16T18:02:49;12.50;;;3.40;;
64335;SDS011;50672;53.362;-6.240;2022-10-16T18:05:16;14.30;;;4.17;;
64335;SDS011;50672;53.362;-6.240;2022-10-16T18:07:43;15.80;;;4.53;;
64335;SDS011;50672;53.362;-6.240;2022-10-16T18:10:09;16.87;;;2.73;;
64335;SDS011;50672;53.362;-6.240;2022-10-16T18:12:37;13.40;;;3.23;;
64335;SDS011;50672;53.362;-6.240;2022-10-16T18:15:04;16.07;;;3.77;;
64335;SDS011;50672;53.362;-6.240;2022-10-16T18:17:33;12.33;;;3.33;;
64335;SDS011;50672;53.362;-6.240;2022-10-16T18:20:04;12.63;;;2.43;;
64335;SDS011;50672;53.362;-6.240;2022-10-16T18:22:32;18.67;;;2.57;;
64335;SDS011;50672;53.362;-6.240;2022-10-16T18:25:03;15.50;;;2.90;;
64335;SDS011;50672;53.362;-6.240;2022-10-16T18:27:31;17.17;;;3.03;;
64335;SDS011;50672;53.362;-6.240;2022-10-16T18:29:59;17.03;;;3.47;;
64335;SDS011;50672;53.362;-6.240;2022-10-16T18:32:26;16.50;;;2.47;;
64335;SDS011;50672;53.362;-6.240;2022-10-16T18:34:53;13.10;;;2.13;;
64335;SDS011;50672;53.362;-6.240;2022-10-16T18:37:20;18.87;;;4.60;;
64335;SDS011;50672;53.362;-6.240;2022-10-16T18:39:47;24.03;;;4.97;;
64335;SDS011;50672;53.362;-6.240;2022-10-16T18:43:14;17.97;;;3.97;;
64335;SDS011;50672;53.362;-6.240;2022-10-16T18:45:41;23.13;;;4.13;;
64335;SDS011;50672;53.362;-6.240;2022-10-16T18:49:07;14.17;;;3.03;;
64335;SDS011;50672;53.362;-6.240;2022-10-16T18:51:55;17.33;;;4.77;;
64335;SDS011;50672;53.362;-6.240;2022-10-16T18:55:51;24.37;;;6.93;;
64335;SDS011;50672;53.362;-6.240;2022-10-16T18:58:19;34.97;;;8.17;;
64335;SDS011;50672;53.362;-6.240;2022-10-16T19:01:47;35.27;;;9.93;;
64335;SDS011;50672;53.362;-6.240;2022-10-16T19:05:12;27.47;;;7.47;;
64335;SDS011;50672;53.362;-6.240;2022-10-16T19:09:04;18.07;;;3.53;;
64335;SDS011;50672;53.362;-6.240;2022-10-16T19:11:51;33.93;;;8.20;;
64335;SDS011;50672;53.362;-6.240;2022-10-16T19:14:22;27.48;;;8.93;;
64335;SDS011;50672;53.362;-6.240;2022-10-16T19:17:49;32.23;;;9.60;;
64335;SDS011;50672;53.362;-6.240;2022-10-16T19:21:16;31.27;;;8.03;;
64335;SDS011;50672;53.362;-6.240;2022-10-16T19:24:37;25.23;;;5.47;;
64335;SDS011;50672;53.362;-6.240;2022-10-16T19:27:04;28.27;;;10.07;;
64335;SDS011;50672;53.362;-6.240;2022-10-16T19:29:32;21.23;;;6.87;;
64335;SDS011;50672;53.362;-6.240;2022-10-16T19:31:59;23.47;;;7.83;;
64335;SDS011;50672;53.362;-6.240;2022-10-16T19:34:32;27.13;;;5.70;;
64335;SDS011;50672;53.362;-6.240;2022-10-16T19:36:59;23.80;;;6.00;;